Port Huron, MI

7:31 PM EDT on August 17, 2019 (GMT -0400)
Saint Clair County International

Weather History for KPHN - July, 2019

Change the Weather History Date:

Monday, July 22, 2019

  Actual Average (KMTC) Record (KMTC)
Temperature  
Mean Temperature 66 °F -  
Max Temperature 77 °F 81 °F 94 °F (1972)
Min Temperature 55 °F 60 °F 50 °F (1981)
Cooling Degree Days 1    
Growing Degree Days 16 (Base 50)    
Moisture  
Dew Point 56 °F    
Average Humidity 65    
Maximum Humidity 88    
Minimum Humidity 41    
Precipitation  
Precipitation 0.00 in - - ()
Sea Level Pressure  
Sea Level Pressure 29.95 in    
Wind  
Wind Speed 4 mph (NNW)    
Max Wind Speed 13 mph    
Max Gust Speed 23 mph    
Visibility 10 miles    
Events Rain    
Averages and records for this station are not official NWS values.
T = Trace of Precipitation, MM = Missing Value Source: NWS Daily Summary

Daily Weather History Graph

Daily Weather History Graph

Search for Another Location

Airport or City:

Astronomy

Jul. 22, 2019 Rise Set
Actual Time 6:11 AM EDT 9:01 PM EDT
Civil Twilight 5:37 AM EDT 9:34 PM EDT
Nautical Twilight 4:55 AM EDT 10:16 PM EDT
Astronomical Twilight 4:06 AM EDT 11:05 PM EDT
Moon No Moon Rise 11:33 AM EDT (7/22)
Length of Visible Light 15h 57m
Length of Day
14h 50m
Waning Gibbous, 72% of the Moon is Illuminated
Jul 22
Waning Gibbous
Jul 24
Last Quarter
Jul 31
New
Aug 7
First Quarter
Aug 15
Full

Hourly Weather History & Observations

Time (EDT) Temp. Dew Point Humidity Pressure Visibility Wind Dir Wind Speed Gust Speed Precip Events Conditions
12:15 AM 68.0 °F 62.6 °F 83% 29.96 in 10.0 mi Calm Calm - N/A Rain Light Rain
12:35 AM 68.0 °F 62.6 °F 83% 29.95 in 10.0 mi Calm Calm - N/A   Overcast
12:40 AM 68.0 °F 62.6 °F 83% 29.95 in 10.0 mi Calm Calm - N/A   Overcast
12:58 AM 68.0 °F 62.6 °F 83% 29.95 in 10.0 mi Calm Calm - N/A   Overcast
1:16 AM 66.2 °F 62.6 °F 88% 29.95 in 10.0 mi Calm Calm - N/A   Overcast
1:35 AM 66.2 °F 62.6 °F 88% 29.95 in 10.0 mi Calm Calm - N/A   Overcast
1:36 AM 66.2 °F 62.6 °F 88% 29.95 in 10.0 mi Calm Calm - N/A   Overcast
1:55 AM 68.0 °F 62.6 °F 83% 29.94 in 10.0 mi Calm Calm - N/A   Overcast
2:19 AM 68.0 °F 64.4 °F 88% 29.94 in 10.0 mi Calm Calm - N/A Rain Light Rain
2:37 AM 68.0 °F 62.6 °F 83% 29.94 in 10.0 mi NNE 5.8 mph - N/A Rain Light Rain
2:55 AM 68.0 °F 62.6 °F 83% 29.94 in 10.0 mi NNE 6.9 mph - N/A Rain Light Rain
2:56 AM 68.0 °F 62.6 °F 83% 29.94 in 10.0 mi NNE 6.9 mph - N/A Rain Rain
3:15 AM 69.8 °F 60.8 °F 73% 29.94 in 10.0 mi NNE 4.6 mph - N/A   Overcast
3:35 AM 69.8 °F 60.8 °F 73% 29.94 in 10.0 mi NNE 5.8 mph - N/A   Overcast
3:58 AM 69.8 °F 60.8 °F 73% 29.94 in 10.0 mi North 5.8 mph - N/A   Overcast
4:16 AM 69.8 °F 60.8 °F 73% 29.94 in 10.0 mi NNE 4.6 mph - N/A   Mostly Cloudy
4:35 AM 68.0 °F 59.0 °F 73% 29.93 in 10.0 mi North 5.8 mph - N/A   Scattered Clouds
4:55 AM 68.0 °F 57.2 °F 68% 29.94 in 10.0 mi North 3.5 mph - N/A   Scattered Clouds
5:19 AM 66.2 °F 57.2 °F 73% 29.94 in 10.0 mi Calm Calm - N/A   Scattered Clouds
5:37 AM 66.2 °F 57.2 °F 73% 29.94 in 10.0 mi NW 3.5 mph - N/A   Scattered Clouds
5:55 AM 64.4 °F 57.2 °F 77% 29.94 in 10.0 mi Calm Calm - N/A   Scattered Clouds
6:15 AM 62.6 °F 55.4 °F 77% 29.94 in 10.0 mi Calm Calm - N/A   Clear
6:16 AM 62.6 °F 55.4 °F 77% 29.94 in 10.0 mi NW 3.5 mph - N/A   Clear
6:35 AM 62.6 °F 57.2 °F 82% 29.94 in 10.0 mi Calm Calm - N/A   Mostly Cloudy
6:40 AM 62.6 °F 57.2 °F 82% 29.95 in 10.0 mi Calm Calm - N/A   Mostly Cloudy
6:58 AM 62.6 °F 57.2 °F 82% 29.95 in 10.0 mi NW 5.8 mph - N/A   Scattered Clouds
7:16 AM 64.4 °F 57.2 °F 77% 29.95 in 10.0 mi NW 4.6 mph - N/A   Clear
7:35 AM 64.4 °F 57.2 °F 77% 29.96 in 10.0 mi NW 4.6 mph - N/A   Clear
7:36 AM 64.4 °F 57.2 °F 77% 29.96 in 10.0 mi NW 4.6 mph - N/A   Clear
7:55 AM 64.4 °F 57.2 °F 77% 29.96 in 10.0 mi NNW 4.6 mph - N/A   Clear
7:56 AM 64.4 °F 57.2 °F 77% 29.96 in 10.0 mi NW 4.6 mph - N/A   Clear
8:19 AM 64.4 °F 57.2 °F 77% 29.96 in 10.0 mi NW 4.6 mph - N/A   Clear
8:36 AM 64.4 °F 57.2 °F 77% 29.96 in 10.0 mi NNW 5.8 mph - N/A   Clear
8:55 AM 66.2 °F 57.2 °F 73% 29.96 in 10.0 mi NNW 6.9 mph - N/A   Clear
8:56 AM 66.2 °F 57.2 °F 73% 29.96 in 10.0 mi NNW 6.9 mph - N/A   Clear
9:15 AM 66.2 °F 57.2 °F 73% 29.97 in 10.0 mi NNW 4.6 mph - N/A   Clear
9:35 AM 66.2 °F 55.4 °F 68% 29.96 in 10.0 mi NNW 5.8 mph - N/A   Clear
9:58 AM 68.0 °F 57.2 °F 68% 29.95 in 10.0 mi North 9.2 mph - N/A   Clear
10:16 AM 68.0 °F 57.2 °F 68% 29.95 in 10.0 mi NNW 6.9 mph - N/A   Clear
10:35 AM 69.8 °F 55.4 °F 60% 29.95 in 10.0 mi NNW 3.5 mph - N/A   Clear
10:55 AM 69.8 °F 57.2 °F 64% 29.95 in 10.0 mi North 4.6 mph - N/A   Clear
11:19 AM 71.6 °F 55.4 °F 57% 29.94 in 10.0 mi Calm Calm - N/A   Clear
11:37 AM 73.4 °F 57.2 °F 57% 29.94 in 10.0 mi Calm Calm - N/A   Clear
11:55 AM 75.2 °F 55.4 °F 50% 29.94 in 10.0 mi Calm Calm - N/A   Clear
12:15 PM 77.0 °F 57.2 °F 50% 29.93 in 10.0 mi Calm Calm - N/A   Clear
12:35 PM 77.0 °F 57.2 °F 50% 29.93 in 10.0 mi NW 6.9 mph - N/A   Scattered Clouds
12:40 PM 77.0 °F 57.2 °F 50% 29.93 in 10.0 mi NNW 9.2 mph - N/A   Scattered Clouds
12:58 PM 75.2 °F 55.4 °F 50% 29.94 in 10.0 mi NNW 8.1 mph - N/A   Scattered Clouds
1:16 PM 75.2 °F 57.2 °F 53% 29.94 in 10.0 mi NW 9.2 mph - N/A   Mostly Cloudy
1:35 PM 75.2 °F 55.4 °F 50% 29.94 in 10.0 mi NNW 10.4 mph - N/A   Scattered Clouds
1:36 PM 75.2 °F 55.4 °F 50% 29.94 in 10.0 mi NW 10.4 mph - N/A   Scattered Clouds
1:55 PM 75.2 °F 55.4 °F 50% 29.94 in 10.0 mi WNW 10.4 mph 18.4 mph N/A   Clear
1:56 PM 75.2 °F 55.4 °F 50% 29.94 in 10.0 mi WNW 10.4 mph 18.4 mph N/A   Clear
2:19 PM 77.0 °F 55.4 °F 47% 29.94 in 10.0 mi NW 10.4 mph - N/A   Clear
2:37 PM 75.2 °F 53.6 °F 47% 29.94 in 10.0 mi NNW 5.8 mph 17.3 mph N/A   Clear
2:55 PM 75.2 °F 55.4 °F 50% 29.94 in 10.0 mi NW 10.4 mph 17.3 mph N/A   Scattered Clouds
2:56 PM 75.2 °F 55.4 °F 50% 29.94 in 10.0 mi NW 9.2 mph 17.3 mph N/A   Scattered Clouds
3:15 PM 75.2 °F 57.2 °F 53% 29.94 in 10.0 mi NNW 6.9 mph 16.1 mph N/A   Scattered Clouds
3:16 PM 75.2 °F 57.2 °F 53% 29.94 in 10.0 mi NNW 8.1 mph 16.1 mph N/A   Scattered Clouds
3:35 PM 75.2 °F 57.2 °F 53% 29.93 in 10.0 mi NNW 10.4 mph 16.1 mph N/A   Scattered Clouds
3:58 PM 73.4 °F 60.8 °F 65% 29.94 in 10.0 mi NNE 12.7 mph - N/A   Mostly Cloudy
4:16 PM 73.4 °F 60.8 °F 65% 29.94 in 10.0 mi North 9.2 mph - N/A   Overcast
4:35 PM 73.4 °F 57.2 °F 57% 29.94 in 10.0 mi North 9.2 mph 17.3 mph N/A   Mostly Cloudy
4:55 PM 73.4 °F 55.4 °F 53% 29.94 in 10.0 mi North 11.5 mph 18.4 mph N/A   Scattered Clouds
5:19 PM 73.4 °F 55.4 °F 53% 29.95 in 10.0 mi North 12.7 mph 18.4 mph N/A   Scattered Clouds
5:37 PM 73.4 °F 53.6 °F 50% 29.95 in 10.0 mi NNE 11.5 mph 18.4 mph N/A   Scattered Clouds
5:55 PM 73.4 °F 51.8 °F 47% 29.95 in 10.0 mi North 10.4 mph 23.0 mph N/A   Scattered Clouds
6:15 PM 71.6 °F 48.2 °F 43% 29.95 in 10.0 mi North 9.2 mph 21.9 mph N/A   Clear
6:35 PM 71.6 °F 48.2 °F 43% 29.95 in 10.0 mi North 8.1 mph 16.1 mph N/A   Clear
6:40 PM 71.6 °F 48.2 °F 43% 29.96 in 10.0 mi North 6.9 mph - N/A   Clear
6:58 PM 69.8 °F 50.0 °F 49% 29.96 in 10.0 mi North 4.6 mph - N/A   Clear
7:16 PM 71.6 °F 51.8 °F 50% 29.96 in 10.0 mi NNE 4.6 mph - N/A   Clear
7:35 PM 71.6 °F 51.8 °F 50% 29.96 in 10.0 mi North 5.8 mph - N/A   Clear
7:55 PM 71.6 °F 46.4 °F 41% 29.96 in 10.0 mi North 5.8 mph - N/A   Clear
7:56 PM 71.6 °F 46.4 °F 41% 29.96 in 10.0 mi North 5.8 mph - N/A   Clear
8:19 PM 69.8 °F 46.4 °F 43% 29.97 in 10.0 mi Calm Calm - N/A   Clear
8:37 PM 68.0 °F 50.0 °F 52% 29.98 in 10.0 mi North 4.6 mph - N/A   Clear
8:55 PM 66.2 °F 50.0 °F 56% 29.98 in 10.0 mi North 3.5 mph - N/A   Clear
9:15 PM 62.6 °F 50.0 °F 63% 29.98 in 10.0 mi Calm Calm - N/A   Clear
9:16 PM 62.6 °F 50.0 °F 63% 29.98 in 10.0 mi Calm Calm - N/A   Clear
9:35 PM 59.0 °F 51.8 °F 77% 29.98 in 10.0 mi Calm Calm - N/A   Clear
9:40 PM 59.0 °F 50.0 °F 72% 29.98 in 10.0 mi NW 3.5 mph - N/A   Clear
9:58 PM 57.2 °F 50.0 °F 77% 29.99 in 10.0 mi NW 4.6 mph - N/A   Clear
10:16 PM 59.0 °F 48.2 °F 67% 29.99 in 10.0 mi NW 3.5 mph - N/A   Clear
10:35 PM 59.0 °F 48.2 °F 67% 29.99 in 10.0 mi NW 4.6 mph - N/A   Clear
10:36 PM 59.0 °F 48.2 °F 67% 29.99 in 10.0 mi NW 4.6 mph - N/A   Clear
10:55 PM 57.2 °F 48.2 °F 72% 29.99 in 10.0 mi NW 4.6 mph - N/A   Clear
11:19 PM 57.2 °F 46.4 °F 67% 29.99 in 10.0 mi WNW 3.5 mph - N/A   Clear
11:37 PM 55.4 °F 48.2 °F 77% 29.99 in 10.0 mi WNW 4.6 mph - N/A   Clear
11:55 PM 57.2 °F 48.2 °F 72% 29.99 in 10.0 mi NW 5.8 mph - N/A   Clear
11:56 PM 57.2 °F 48.2 °F 72% 29.99 in 10.0 mi NW 6.9 mph - N/A   Clear